createdAt,value
2019-01-12T00:01:36.297Z,16.80
2019-01-12T00:04:06.566Z,16.23
2019-01-12T00:06:36.832Z,14.90
2019-01-12T00:09:08.367Z,17.30
2019-01-12T00:11:38.599Z,14.00
2019-01-12T00:14:08.887Z,17.77
2019-01-12T00:16:39.158Z,19.90
2019-01-12T00:19:09.618Z,19.67
2019-01-12T00:21:39.829Z,19.37
2019-01-12T00:24:10.069Z,22.53
2019-01-12T00:26:40.339Z,15.63
2019-01-12T00:29:10.707Z,18.03
2019-01-12T00:31:40.910Z,15.23
2019-01-12T00:34:11.169Z,16.47
2019-01-12T00:36:41.423Z,16.43
2019-01-12T00:39:11.654Z,17.87
2019-01-12T00:41:41.882Z,15.07
2019-01-12T00:44:12.147Z,13.23
2019-01-12T00:46:42.449Z,12.53
2019-01-12T00:49:12.698Z,11.80
2019-01-12T00:51:42.946Z,12.47
2019-01-12T00:54:13.333Z,18.27
2019-01-12T00:56:43.634Z,10.50
2019-01-12T00:59:18.530Z,9.90
2019-01-12T01:01:48.810Z,16.13
2019-01-12T01:04:19.055Z,11.63
2019-01-12T01:06:49.371Z,11.70
2019-01-12T01:09:19.558Z,13.27
2019-01-12T01:11:49.778Z,12.67
2019-01-12T01:14:20.030Z,11.73
2019-01-12T01:16:50.290Z,11.77
2019-01-12T01:19:20.524Z,15.87
2019-01-12T01:21:50.791Z,11.43
2019-01-12T01:24:21.031Z,15.53
2019-01-12T01:26:51.398Z,13.27
2019-01-12T01:29:21.654Z,14.47
2019-01-12T01:31:51.962Z,12.17
2019-01-12T01:34:22.184Z,11.63
2019-01-12T01:36:52.474Z,15.40
2019-01-12T01:39:22.692Z,12.07
2019-01-12T01:41:52.968Z,14.27
2019-01-12T01:44:23.292Z,12.20
2019-01-12T01:46:54.529Z,13.33
2019-01-12T01:49:24.828Z,13.73
2019-01-12T01:51:55.071Z,11.57
2019-01-12T01:54:25.343Z,11.70
2019-01-12T01:56:55.621Z,12.90
2019-01-12T01:59:25.878Z,13.03
2019-01-12T02:01:56.105Z,14.07
2019-01-12T02:04:26.383Z,13.90
2019-01-12T02:06:56.684Z,14.57
2019-01-12T02:09:26.962Z,11.53
2019-01-12T02:11:57.194Z,14.33
2019-01-12T02:14:27.450Z,16.23
2019-01-12T02:16:57.682Z,12.90
2019-01-12T02:19:28.020Z,12.93
2019-01-12T02:21:58.301Z,17.03
2019-01-12T02:24:28.538Z,11.70
2019-01-12T02:26:58.768Z,11.60
2019-01-12T02:29:29.021Z,11.43
2019-01-12T02:31:59.291Z,12.00
2019-01-12T02:34:29.568Z,16.13
2019-01-12T02:36:59.864Z,11.87
2019-01-12T02:39:30.109Z,12.40
2019-01-12T02:42:00.367Z,11.30
2019-01-12T02:44:30.683Z,14.20
2019-01-12T02:47:01.924Z,14.43
2019-01-12T02:49:32.163Z,15.00
2019-01-12T02:52:03.982Z,17.43
2019-01-12T02:54:34.421Z,16.03
2019-01-12T02:57:04.773Z,16.40
2019-01-12T02:59:35.195Z,18.17
2019-01-12T03:02:06.169Z,15.40
2019-01-12T03:04:42.430Z,15.67
2019-01-12T03:07:12.723Z,19.40
2019-01-12T03:09:42.911Z,16.30
2019-01-12T03:12:13.147Z,16.83
2019-01-12T03:14:43.598Z,16.77
2019-01-12T03:20:52.642Z,18.83
2019-01-12T03:23:22.871Z,18.60
2019-01-12T03:25:54.073Z,17.93
2019-01-12T03:28:24.308Z,21.93
2019-01-12T03:30:54.551Z,17.13
2019-01-12T03:33:25.795Z,19.70
2019-01-12T03:35:55.994Z,16.93
2019-01-12T03:38:27.145Z,18.23
2019-01-12T03:40:57.479Z,22.07
2019-01-12T03:43:27.743Z,18.93
2019-01-12T03:45:57.939Z,16.90
2019-01-12T03:48:28.262Z,16.27
2019-01-12T03:50:58.483Z,15.77
2019-01-12T03:53:28.727Z,18.60
2019-01-12T03:55:58.938Z,18.10
2019-01-12T03:58:29.194Z,15.37
2019-01-12T04:00:59.497Z,17.43
2019-01-12T04:03:29.795Z,20.13
2019-01-12T04:05:59.993Z,15.50
2019-01-12T04:08:30.199Z,17.33
2019-01-12T04:11:00.399Z,17.57
2019-01-12T04:13:30.654Z,15.90
2019-01-12T04:16:00.874Z,17.87
2019-01-12T04:18:31.153Z,22.70
2019-01-12T04:21:01.363Z,20.33
2019-01-12T04:23:31.650Z,18.80
2019-01-12T04:26:01.870Z,19.60
2019-01-12T04:28:32.117Z,17.33
2019-01-12T04:31:02.415Z,19.30
2019-01-12T04:33:32.673Z,18.63
2019-01-12T04:36:02.899Z,17.33
2019-01-12T04:38:33.182Z,17.90
2019-01-12T04:41:03.393Z,18.50
2019-01-12T04:43:33.653Z,18.37
2019-01-12T04:46:04.095Z,18.33
2019-01-12T04:48:34.305Z,17.37
2019-01-12T04:51:04.579Z,17.73
2019-01-12T04:53:34.765Z,17.37
2019-01-12T04:56:05.109Z,17.30
2019-01-12T04:58:35.322Z,16.23
2019-01-12T05:01:05.580Z,16.43
2019-01-12T05:03:35.813Z,16.70
2019-01-12T05:06:06.053Z,15.50
2019-01-12T05:08:36.268Z,16.10
2019-01-12T05:11:07.388Z,14.07
2019-01-12T05:13:37.648Z,13.80
2019-01-12T05:16:07.896Z,13.40
2019-01-12T05:18:38.102Z,16.17
2019-01-12T05:21:08.410Z,15.83
2019-01-12T05:23:38.656Z,13.33
2019-01-12T05:26:08.881Z,13.33
2019-01-12T05:28:39.085Z,14.83
2019-01-12T05:31:09.283Z,15.83
2019-01-12T05:33:39.489Z,12.63
2019-01-12T05:36:09.763Z,13.07
2019-01-12T05:38:40.022Z,13.80
2019-01-12T05:41:10.279Z,16.00
2019-01-12T05:43:40.594Z,14.83
2019-01-12T05:46:10.846Z,13.60
2019-01-12T05:48:41.045Z,12.47
2019-01-12T05:51:11.274Z,17.03
2019-01-12T05:53:41.518Z,15.00
2019-01-12T05:56:43.673Z,12.87
2019-01-12T06:02:57.859Z,14.10
2019-01-12T06:05:46.683Z,13.77
2019-01-12T06:08:16.918Z,13.00
2019-01-12T06:10:47.153Z,15.07
2019-01-12T06:13:30.215Z,12.97
2019-01-12T06:19:32.273Z,13.93
2019-01-12T06:25:30.986Z,11.70
2019-01-12T06:31:12.417Z,11.60
2019-01-12T06:43:51.622Z,8.90
2019-01-12T06:49:48.244Z,8.83
2019-01-12T06:52:18.458Z,9.63
2019-01-12T06:54:48.750Z,7.63
2019-01-12T06:57:21.797Z,7.67
2019-01-12T06:59:52.090Z,8.57
2019-01-12T07:02:22.298Z,6.20
2019-01-12T07:04:58.395Z,5.83
2019-01-12T07:10:09.147Z,6.53
2019-01-12T07:12:39.337Z,5.77
2019-01-12T07:15:11.164Z,6.67
2019-01-12T07:17:41.389Z,7.37
2019-01-12T07:20:14.237Z,7.07
2019-01-12T07:26:20.823Z,9.00
2019-01-12T07:32:14.531Z,7.47
2019-01-12T07:34:57.952Z,8.90
2019-01-12T07:37:28.270Z,8.03
2019-01-12T07:40:08.264Z,11.03
2019-01-12T07:42:38.532Z,10.10
2019-01-12T07:45:10.014Z,9.33
2019-01-12T07:47:40.244Z,10.03
2019-01-12T07:50:11.667Z,14.53
2019-01-12T07:52:41.891Z,9.67
2019-01-12T07:55:12.203Z,13.23
2019-01-12T07:57:42.451Z,11.53
2019-01-12T08:00:15.988Z,10.30
2019-01-12T08:02:48.353Z,12.60
2019-01-12T08:09:00.286Z,13.10
2019-01-12T08:11:30.529Z,15.20
2019-01-12T08:14:02.568Z,12.90
2019-01-12T08:16:32.806Z,13.33
2019-01-12T08:19:03.078Z,17.10
2019-01-12T08:21:34.920Z,17.23
2019-01-12T08:24:05.203Z,16.67
2019-01-12T08:26:35.544Z,17.50
2019-01-12T08:29:05.843Z,18.60
2019-01-12T08:31:36.183Z,18.60
2019-01-12T08:34:06.435Z,17.73
2019-01-12T08:36:55.567Z,19.87
2019-01-12T08:39:25.921Z,24.37
2019-01-12T08:41:56.207Z,20.70
2019-01-12T08:44:26.482Z,22.10
2019-01-12T08:46:56.769Z,21.77
2019-01-12T08:49:28.066Z,19.07
2019-01-12T08:51:58.282Z,19.17
2019-01-12T08:54:29.134Z,19.43
2019-01-12T08:56:59.477Z,20.23
2019-01-12T08:59:29.822Z,17.43
2019-01-12T09:02:00.104Z,17.47
2019-01-12T09:04:30.415Z,18.27
2019-01-12T09:07:00.739Z,19.77
2019-01-12T09:09:31.091Z,18.60
2019-01-12T09:12:01.338Z,17.40
2019-01-12T09:14:31.612Z,19.17
2019-01-12T09:17:01.977Z,18.47
2019-01-12T09:19:32.357Z,19.47
2019-01-12T09:22:02.607Z,19.17
2019-01-12T09:24:32.910Z,17.83
2019-01-12T09:27:03.190Z,19.50
2019-01-12T09:29:35.656Z,16.33
2019-01-12T09:32:06.358Z,18.50
2019-01-12T09:34:36.719Z,16.47
2019-01-12T09:37:07.112Z,18.77
2019-01-12T09:39:37.403Z,17.20
2019-01-12T09:42:08.187Z,17.33
2019-01-12T09:44:38.474Z,14.13
2019-01-12T09:47:08.930Z,13.00
2019-01-12T09:49:39.204Z,15.47
2019-01-12T09:52:09.863Z,13.60
2019-01-12T09:54:40.123Z,15.23
2019-01-12T09:57:10.704Z,14.13
2019-01-12T09:59:41.011Z,14.70
2019-01-12T10:02:11.276Z,14.20
2019-01-12T10:04:41.603Z,12.77
2019-01-12T10:07:11.907Z,14.07
2019-01-12T10:09:42.207Z,12.77
2019-01-12T10:12:12.515Z,12.17
2019-01-12T10:14:42.810Z,13.03
2019-01-12T10:17:13.104Z,11.67
2019-01-12T10:19:43.462Z,12.83
2019-01-12T10:22:13.732Z,11.83
2019-01-12T10:24:44.050Z,11.50
2019-01-12T10:27:14.393Z,10.60
2019-01-12T10:29:44.802Z,10.70
2019-01-12T10:32:15.097Z,10.33
2019-01-12T10:34:45.393Z,11.77
2019-01-12T10:37:16.686Z,12.07
2019-01-12T10:39:47.050Z,10.83
2019-01-12T10:42:17.334Z,11.40
2019-01-12T10:44:47.600Z,10.40
2019-01-12T10:47:17.898Z,10.23
2019-01-12T10:49:48.185Z,11.53
2019-01-12T10:52:18.658Z,10.63
2019-01-12T10:54:51.275Z,10.37
2019-01-12T10:57:21.794Z,9.57
2019-01-12T10:59:52.091Z,9.80
2019-01-12T11:02:22.367Z,8.70
2019-01-12T11:04:52.674Z,11.03
2019-01-12T11:07:22.975Z,10.87
2019-01-12T11:09:54.219Z,10.10
2019-01-12T11:12:24.853Z,9.43
2019-01-12T11:14:55.179Z,10.00
2019-01-12T11:17:25.474Z,10.40
2019-01-12T11:19:55.805Z,10.50
2019-01-12T11:22:28.449Z,11.20
2019-01-12T11:25:01.657Z,10.67
2019-01-12T11:27:31.929Z,9.43
2019-01-12T11:30:02.253Z,10.00
2019-01-12T11:32:32.944Z,10.97
2019-01-12T11:35:03.264Z,11.73
2019-01-12T11:37:33.555Z,12.47
2019-01-12T11:40:04.646Z,10.00
2019-01-12T11:42:34.920Z,11.53
2019-01-12T11:45:06.214Z,12.03
2019-01-12T11:47:36.490Z,12.20
2019-01-12T11:50:09.039Z,12.97
2019-01-12T11:52:39.339Z,10.20
2019-01-12T11:55:10.567Z,11.43
2019-01-12T11:57:40.881Z,11.13
2019-01-12T12:00:23.816Z,10.17
2019-01-12T12:02:54.277Z,12.67
2019-01-12T12:05:24.705Z,12.67
2019-01-12T12:07:55.063Z,11.53
2019-01-12T12:10:25.521Z,12.13
2019-01-12T12:12:55.927Z,13.33
2019-01-12T12:15:26.279Z,11.13
2019-01-12T12:17:56.633Z,11.27
2019-01-12T12:20:28.213Z,10.60
2019-01-12T12:22:58.481Z,14.03
2019-01-12T12:25:28.882Z,11.60
2019-01-12T12:27:59.180Z,14.10
2019-01-12T12:30:32.686Z,10.87
2019-01-12T12:33:02.946Z,11.37
2019-01-12T12:35:37.657Z,10.13
2019-01-12T12:38:05.888Z,11.53
2019-01-12T12:40:36.209Z,10.80
2019-01-12T12:43:06.477Z,12.57
2019-01-12T12:45:37.402Z,8.87
2019-01-12T12:48:07.780Z,10.87
2019-01-12T12:50:38.090Z,11.63
2019-01-12T12:53:08.370Z,9.20
2019-01-12T12:55:38.670Z,10.30
2019-01-12T12:58:08.929Z,13.20
2019-01-12T13:00:39.205Z,9.83
2019-01-12T13:03:09.463Z,11.20
2019-01-12T13:05:39.767Z,9.13
2019-01-12T13:08:12.011Z,7.83
2019-01-12T13:10:42.317Z,7.60
2019-01-12T13:13:12.573Z,9.30
2019-01-12T13:15:42.945Z,7.30
2019-01-12T13:18:13.165Z,7.27
2019-01-12T13:20:44.518Z,7.57
2019-01-12T13:23:14.759Z,6.80
2019-01-12T13:25:45.127Z,6.20
2019-01-12T13:28:15.353Z,7.27
2019-01-12T13:30:45.674Z,6.90
2019-01-12T13:33:15.978Z,4.67
2019-01-12T13:35:47.145Z,4.80
2019-01-12T13:38:17.450Z,5.00
2019-01-12T13:40:47.727Z,4.23
2019-01-12T13:43:18.045Z,4.30
2019-01-12T13:45:48.318Z,3.43
2019-01-12T13:48:18.567Z,4.13
2019-01-12T13:50:48.842Z,4.20
2019-01-12T13:53:19.115Z,4.20
2019-01-12T13:55:49.376Z,4.43
2019-01-12T13:58:19.610Z,3.90
2019-01-12T14:00:49.872Z,3.90
2019-01-12T14:03:20.111Z,4.63
2019-01-12T14:05:50.331Z,3.43
2019-01-12T14:08:20.669Z,3.70
2019-01-12T14:10:50.984Z,3.60
2019-01-12T14:13:21.313Z,3.93
2019-01-12T14:15:51.510Z,3.27
2019-01-12T14:18:22.738Z,3.20
2019-01-12T14:20:53.167Z,2.73
2019-01-12T14:23:23.449Z,3.30
2019-01-12T14:25:53.710Z,3.23
2019-01-12T14:28:24.090Z,3.17
2019-01-12T14:30:54.350Z,4.50
2019-01-12T14:33:24.587Z,3.97
2019-01-12T14:35:54.844Z,3.03
2019-01-12T14:38:25.211Z,3.27
2019-01-12T14:40:55.470Z,2.60
2019-01-12T14:43:25.763Z,2.73
2019-01-12T14:45:56.033Z,2.97
2019-01-12T14:48:26.383Z,2.97
2019-01-12T14:50:56.702Z,2.83
2019-01-12T14:53:27.090Z,3.13
2019-01-12T14:55:57.473Z,2.90
2019-01-12T14:58:27.732Z,2.67
2019-01-12T15:00:58.071Z,2.60
2019-01-12T15:03:28.449Z,2.40
2019-01-12T15:05:58.732Z,2.47
2019-01-12T15:08:29.089Z,2.17
2019-01-12T15:10:59.582Z,2.27
2019-01-12T15:13:29.838Z,2.47
2019-01-12T15:16:00.226Z,2.40
2019-01-12T15:18:30.449Z,2.30
2019-01-12T15:21:04.229Z,2.40
2019-01-12T15:23:34.958Z,2.30
2019-01-12T15:26:05.313Z,2.30
2019-01-12T15:28:35.502Z,2.13
2019-01-12T15:31:05.738Z,2.37
2019-01-12T15:33:35.974Z,2.40
2019-01-12T15:36:06.341Z,1.80
2019-01-12T15:38:36.607Z,2.57
2019-01-12T15:41:06.921Z,3.17
2019-01-12T15:43:37.222Z,2.30
2019-01-12T15:46:07.482Z,1.77
2019-01-12T15:48:37.722Z,1.87
2019-01-12T15:51:07.978Z,2.73
2019-01-12T15:53:38.222Z,1.80
2019-01-12T15:56:09.504Z,2.00
2019-01-12T15:58:39.721Z,2.00
2019-01-12T16:01:09.980Z,2.73
2019-01-12T16:03:40.251Z,1.97
2019-01-12T16:06:10.475Z,2.37
2019-01-12T16:08:40.792Z,2.43
2019-01-12T16:11:11.066Z,2.40
2019-01-12T16:13:41.340Z,2.20
2019-01-12T16:16:13.317Z,2.70
2019-01-12T16:19:11.420Z,2.90
2019-01-12T16:21:44.683Z,4.03
2019-01-12T16:24:15.276Z,3.30
2019-01-12T16:26:45.683Z,4.10
2019-01-12T16:29:15.984Z,4.07
2019-01-12T16:31:49.857Z,6.27
2019-01-12T16:34:20.560Z,4.43
2019-01-12T16:36:51.244Z,5.00
2019-01-12T16:39:21.607Z,5.50
2019-01-12T16:41:51.869Z,6.63
2019-01-12T16:44:22.194Z,6.23
2019-01-12T16:46:52.457Z,7.13
2019-01-12T16:49:22.758Z,6.30
2019-01-12T16:51:53.002Z,7.20
2019-01-12T16:54:24.447Z,7.80
2019-01-12T16:56:54.732Z,6.83
2019-01-12T16:59:25.007Z,7.63
2019-01-12T17:01:55.218Z,7.10
2019-01-12T17:04:36.980Z,7.60
2019-01-12T17:07:07.775Z,6.67
2019-01-12T17:09:38.068Z,6.43
2019-01-12T17:12:08.289Z,6.30
2019-01-12T17:14:38.543Z,6.10
2019-01-12T17:17:08.896Z,6.37
2019-01-12T17:19:39.178Z,5.90
2019-01-12T17:22:10.300Z,5.87
2019-01-12T17:24:40.852Z,5.77
2019-01-12T17:27:13.189Z,5.80
2019-01-12T17:29:43.624Z,5.83
2019-01-12T17:32:14.018Z,5.50
2019-01-12T17:34:45.165Z,4.93
2019-01-12T17:37:19.042Z,7.07
2019-01-12T17:39:49.365Z,4.73
2019-01-12T17:42:19.650Z,4.33
2019-01-12T17:44:50.387Z,4.57
2019-01-12T17:47:20.730Z,4.53
2019-01-12T17:49:51.138Z,5.30
2019-01-12T17:52:21.450Z,5.67
2019-01-12T17:54:51.794Z,5.00
2019-01-12T17:57:22.071Z,5.77
2019-01-12T17:59:52.331Z,6.50
2019-01-12T18:02:22.587Z,6.27
2019-01-12T18:04:52.810Z,7.07
2019-01-12T18:07:23.162Z,7.30
2019-01-12T18:09:53.506Z,7.23
2019-01-12T18:12:23.843Z,6.57
2019-01-12T18:14:54.086Z,6.60
2019-01-12T18:17:24.311Z,5.67
2019-01-12T18:19:54.704Z,6.27
2019-01-12T18:22:24.988Z,6.70
2019-01-12T18:24:55.293Z,6.93
2019-01-12T18:27:25.578Z,6.53
2019-01-12T18:29:55.839Z,5.47
2019-01-12T18:32:26.087Z,5.53
2019-01-12T18:34:56.370Z,5.90
2019-01-12T18:37:26.736Z,6.17
2019-01-12T18:39:57.045Z,6.37
2019-01-12T18:42:27.231Z,3.43
2019-01-12T18:44:57.671Z,3.63
2019-01-12T18:47:27.906Z,7.20
2019-01-12T18:49:58.246Z,4.27
2019-01-12T18:52:28.514Z,8.97
2019-01-12T18:54:58.844Z,4.13
2019-01-12T18:57:29.058Z,5.17
2019-01-12T18:59:59.456Z,6.00
2019-01-12T19:02:29.751Z,7.47
2019-01-12T19:04:59.986Z,7.50
2019-01-12T19:07:30.276Z,8.73
2019-01-12T19:10:00.544Z,9.20
2019-01-12T19:12:32.018Z,8.00
2019-01-12T19:15:02.285Z,8.53
2019-01-12T19:17:32.761Z,13.63
2019-01-12T19:20:03.102Z,11.50
2019-01-12T19:22:33.469Z,10.40
2019-01-12T19:25:03.766Z,11.43
2019-01-12T19:27:37.788Z,13.77
2019-01-12T19:30:11.731Z,11.00
2019-01-12T19:32:42.030Z,15.87
2019-01-12T19:35:12.848Z,13.83
2019-01-12T19:37:43.189Z,14.90
2019-01-12T19:40:20.877Z,20.87
2019-01-12T19:42:51.157Z,18.63
2019-01-12T19:45:21.428Z,18.50
2019-01-12T19:47:56.893Z,17.33
2019-01-12T19:50:27.603Z,16.17
2019-01-12T19:52:58.420Z,16.97
2019-01-12T19:55:28.977Z,17.43
2019-01-12T19:58:02.645Z,18.27
2019-01-12T20:00:34.391Z,19.50
2019-01-12T20:03:06.081Z,19.37
2019-01-12T20:08:25.190Z,18.50
2019-01-12T20:10:55.430Z,19.37
2019-01-12T20:13:26.699Z,16.77
2019-01-12T20:15:57.953Z,19.30
2019-01-12T20:18:28.385Z,16.30
2019-01-12T20:20:58.643Z,18.87
2019-01-12T20:23:28.902Z,21.57
2019-01-12T20:25:59.186Z,19.97
2019-01-12T20:28:29.479Z,16.37
2019-01-12T20:31:44.182Z,19.67
2019-01-12T20:34:40.019Z,16.70
2019-01-12T20:37:34.526Z,17.37
2019-01-12T20:40:35.678Z,15.97
2019-01-12T20:43:21.206Z,18.27
2019-01-12T20:46:32.455Z,16.80
2019-01-12T20:49:20.625Z,13.37
2019-01-12T20:52:41.094Z,14.80
2019-01-12T20:55:45.367Z,14.33
2019-01-12T20:58:52.116Z,10.27
2019-01-12T21:01:42.599Z,8.47
2019-01-12T21:05:06.206Z,5.80
2019-01-12T21:07:58.242Z,6.23
2019-01-12T21:10:49.741Z,6.30
2019-01-12T21:14:01.087Z,7.07
2019-01-12T21:16:40.118Z,8.50
2019-01-12T21:19:10.343Z,8.27
2019-01-12T21:21:40.671Z,10.33
2019-01-12T21:24:10.963Z,10.97
2019-01-12T21:26:41.329Z,13.53
2019-01-12T21:29:11.572Z,15.27
2019-01-12T21:31:42.906Z,17.50
2019-01-12T21:34:14.251Z,16.07
2019-01-12T21:36:45.639Z,13.33
2019-01-12T21:39:15.938Z,12.43
2019-01-12T21:41:48.096Z,12.87
2019-01-12T21:44:18.479Z,8.70
2019-01-12T21:46:48.845Z,7.13
2019-01-12T21:49:19.187Z,7.47
2019-01-12T21:51:49.565Z,7.50
2019-01-12T21:54:19.920Z,8.53
2019-01-12T21:56:50.263Z,9.70
2019-01-12T21:59:20.493Z,9.77
2019-01-12T22:01:50.792Z,10.37
2019-01-12T22:04:21.171Z,10.90
2019-01-12T22:06:51.483Z,12.97
2019-01-12T22:09:21.797Z,11.33
2019-01-12T22:11:52.234Z,14.60
2019-01-12T22:14:22.510Z,15.57
2019-01-12T22:16:52.799Z,15.30
2019-01-12T22:19:23.074Z,16.10
2019-01-12T22:22:14.986Z,19.77
2019-01-12T22:24:45.286Z,18.20
2019-01-12T22:27:15.594Z,17.83
2019-01-12T22:29:49.727Z,18.87
2019-01-12T22:32:17.786Z,17.17
2019-01-12T22:34:48.376Z,16.77
2019-01-12T22:37:18.659Z,18.63
2019-01-12T22:39:51.030Z,17.53
2019-01-12T22:42:22.993Z,18.17
2019-01-12T22:44:53.424Z,16.63
2019-01-12T22:47:23.730Z,17.73
2019-01-12T22:49:54.022Z,23.07
2019-01-12T22:52:24.328Z,18.30
2019-01-12T22:54:54.646Z,19.87
2019-01-12T22:57:24.931Z,23.67
2019-01-12T22:59:57.147Z,24.27
2019-01-12T23:02:28.413Z,26.83
2019-01-12T23:04:58.668Z,22.00
2019-01-12T23:07:28.944Z,23.20
2019-01-12T23:09:59.171Z,27.03
2019-01-12T23:12:29.441Z,23.97
2019-01-12T23:14:59.613Z,22.40
2019-01-12T23:17:29.938Z,23.83
2019-01-12T23:20:00.290Z,21.73
2019-01-12T23:22:30.675Z,24.90
2019-01-12T23:25:00.906Z,26.10
2019-01-12T23:27:31.158Z,22.80
2019-01-12T23:30:04.658Z,27.40
2019-01-12T23:32:33.740Z,21.90
2019-01-12T23:35:04.679Z,26.53
2019-01-12T23:37:35.055Z,22.27
2019-01-12T23:40:05.863Z,25.87
2019-01-12T23:42:36.198Z,24.50
2019-01-12T23:45:07.860Z,24.13
2019-01-12T23:47:38.134Z,26.43
2019-01-12T23:50:08.737Z,27.07
2019-01-12T23:52:39.098Z,25.03
2019-01-12T23:55:09.816Z,22.17
2019-01-12T23:57:40.248Z,26.73
